createdAt,value
2022-08-19T00:01:08.318Z,22.76
2022-08-19T00:06:10.762Z,22.88
2022-08-19T00:11:15.091Z,23.00
2022-08-19T00:16:25.982Z,23.09
2022-08-19T00:21:29.414Z,23.16
2022-08-19T00:26:31.713Z,23.15
2022-08-19T00:31:34.063Z,23.07
2022-08-19T00:36:36.568Z,22.97
2022-08-19T00:41:39.257Z,22.86
2022-08-19T00:46:43.885Z,22.87
2022-08-19T00:51:47.990Z,22.88
2022-08-19T00:56:51.578Z,22.88
2022-08-19T01:01:57.576Z,22.82
2022-08-19T01:07:00.404Z,22.71
2022-08-19T01:12:03.827Z,22.59
2022-08-19T01:17:07.038Z,22.48
2022-08-19T01:22:16.628Z,22.39
2022-08-19T01:27:19.319Z,22.32
2022-08-19T01:32:33.298Z,22.26
2022-08-19T01:37:40.951Z,22.17
2022-08-19T01:42:43.404Z,22.08
2022-08-19T01:47:52.767Z,21.99
2022-08-19T01:53:07.816Z,21.92
2022-08-19T01:58:15.941Z,21.89
2022-08-19T02:03:18.341Z,21.88
2022-08-19T02:08:20.657Z,21.85
2022-08-19T02:13:26.344Z,21.81
2022-08-19T02:18:28.948Z,21.74
2022-08-19T02:23:32.249Z,21.66
2022-08-19T02:28:34.623Z,21.60
2022-08-19T02:33:36.922Z,21.56
2022-08-19T02:38:40.536Z,21.53
2022-08-19T02:43:44.405Z,21.50
2022-08-19T02:49:06.343Z,21.45
2022-08-19T02:54:09.600Z,21.40
2022-08-19T02:59:12.471Z,21.38
2022-08-19T03:04:16.369Z,21.40
2022-08-19T03:09:20.433Z,21.45
2022-08-19T03:14:23.987Z,21.51
2022-08-19T03:19:26.410Z,21.54
2022-08-19T03:24:28.810Z,21.52
2022-08-19T03:29:32.770Z,21.50
2022-08-19T03:34:35.485Z,21.48
2022-08-19T03:39:38.547Z,21.50
2022-08-19T03:44:43.050Z,21.51
2022-08-19T03:49:45.542Z,21.52
2022-08-19T03:54:47.902Z,21.55
2022-08-19T03:59:50.205Z,21.57
2022-08-19T04:04:54.132Z,21.64
2022-08-19T04:09:56.592Z,21.72
2022-08-19T04:14:59.286Z,21.84
2022-08-19T04:20:02.038Z,21.96
2022-08-19T04:25:09.737Z,22.06
2022-08-19T04:30:12.458Z,22.13
2022-08-19T04:35:18.522Z,22.21
2022-08-19T04:40:25.440Z,22.35
2022-08-19T04:45:27.782Z,22.48
2022-08-19T04:50:41.999Z,22.62
2022-08-19T04:55:44.407Z,22.79
2022-08-19T05:00:46.835Z,23.02
2022-08-19T05:05:49.587Z,23.25
2022-08-19T05:10:52.511Z,23.54
2022-08-19T05:15:56.372Z,23.85
2022-08-19T05:21:01.858Z,24.11
2022-08-19T05:26:04.819Z,24.37
2022-08-19T05:31:07.162Z,24.62
2022-08-19T05:36:09.918Z,24.94
2022-08-19T05:41:13.488Z,25.14
2022-08-19T05:46:19.004Z,25.29
2022-08-19T05:51:30.292Z,25.45
2022-08-19T05:56:32.687Z,25.50
2022-08-19T06:01:35.638Z,25.54
2022-08-19T06:06:37.961Z,25.58
2022-08-19T06:11:44.329Z,25.67
2022-08-19T06:16:46.989Z,25.81
2022-08-19T06:21:50.367Z,25.96
2022-08-19T06:26:56.678Z,26.15
2022-08-19T06:32:01.720Z,26.39
2022-08-19T06:37:04.108Z,26.64
2022-08-19T06:42:09.113Z,26.90
2022-08-19T06:47:23.870Z,27.14
2022-08-19T06:52:27.666Z,27.36
2022-08-19T06:57:32.386Z,27.57
2022-08-19T07:02:38.294Z,27.76
2022-08-19T07:07:43.939Z,27.99
2022-08-19T07:12:51.051Z,28.22
2022-08-19T07:17:53.489Z,28.41
2022-08-19T07:22:56.131Z,28.65
2022-08-19T07:27:58.948Z,28.91
2022-08-19T07:33:04.276Z,29.09
2022-08-19T07:38:08.296Z,29.25
2022-08-19T07:43:14.090Z,29.39
2022-08-19T07:48:19.879Z,29.58
2022-08-19T07:53:22.577Z,29.80
2022-08-19T07:58:24.939Z,30.08
2022-08-19T08:03:31.032Z,30.30
2022-08-19T08:08:36.520Z,30.58
2022-08-19T08:13:39.162Z,30.89
2022-08-19T08:18:43.145Z,31.21
2022-08-19T08:23:45.561Z,31.63
2022-08-19T08:28:49.525Z,31.95
2022-08-19T08:33:52.181Z,32.14
2022-08-19T08:43:57.849Z,32.55
2022-08-19T08:49:08.256Z,32.77
2022-08-19T08:54:12.655Z,33.13
2022-08-19T08:59:16.192Z,33.33
2022-08-19T09:04:18.997Z,33.59
2022-08-19T09:09:31.927Z,33.70
2022-08-19T09:14:54.046Z,33.89
2022-08-19T09:20:03.273Z,34.14
2022-08-19T09:25:07.964Z,34.23
2022-08-19T09:30:22.549Z,34.40
2022-08-19T09:35:26.349Z,34.66
2022-08-19T09:40:34.379Z,34.91
2022-08-19T09:45:40.231Z,35.23
2022-08-19T09:50:51.577Z,35.36
2022-08-19T09:55:56.235Z,35.40
2022-08-19T10:00:59.520Z,35.45
2022-08-19T10:06:03.118Z,35.43
2022-08-19T10:11:27.840Z,35.32
2022-08-19T10:16:30.094Z,35.30
2022-08-19T10:21:33.564Z,35.39
2022-08-19T10:26:37.952Z,35.57
2022-08-19T10:32:01.342Z,35.77
2022-08-19T10:37:03.948Z,35.95
2022-08-19T10:42:11.303Z,35.93
2022-08-19T10:47:24.568Z,36.04
2022-08-19T10:52:32.673Z,36.14
2022-08-19T11:02:58.421Z,36.29
2022-08-19T11:08:00.746Z,36.44
2022-08-19T11:13:05.303Z,36.52
2022-08-19T11:18:13.330Z,36.39
2022-08-19T11:23:15.908Z,36.34
2022-08-19T11:28:18.212Z,36.39
2022-08-19T11:33:20.535Z,36.60
2022-08-19T11:38:22.856Z,36.76
2022-08-19T11:43:25.573Z,36.80
2022-08-19T11:48:27.869Z,36.93
2022-08-19T11:53:30.768Z,37.02
2022-08-19T11:58:33.113Z,37.12
2022-08-19T12:03:36.403Z,37.12
2022-08-19T12:08:39.109Z,37.08
2022-08-19T12:13:46.680Z,37.14
2022-08-19T12:18:49.386Z,37.10
2022-08-19T12:23:55.695Z,37.17
2022-08-19T12:29:00.319Z,37.22
2022-08-19T12:34:03.339Z,37.37
2022-08-19T12:39:06.502Z,37.42
2022-08-19T12:44:14.153Z,37.28
2022-08-19T12:49:50.257Z,37.19
2022-08-19T12:54:39.788Z,37.32
2022-08-19T12:59:42.250Z,37.75
2022-08-19T13:04:44.647Z,38.29
2022-08-19T13:09:46.943Z,38.61
2022-08-19T13:14:51.788Z,38.71
2022-08-19T13:19:54.195Z,38.79
2022-08-19T13:24:56.622Z,38.78
2022-08-19T13:30:01.914Z,38.54
2022-08-19T13:35:04.501Z,38.28
2022-08-19T13:40:08.340Z,38.18
2022-08-19T13:45:11.418Z,38.31
2022-08-19T13:50:15.720Z,38.71
2022-08-19T13:55:22.169Z,38.73
2022-08-19T14:00:28.397Z,38.36
2022-08-19T14:05:31.707Z,37.99
2022-08-19T14:10:34.300Z,37.50
2022-08-19T14:15:38.093Z,37.46
2022-08-19T14:20:40.482Z,38.01
2022-08-19T14:25:43.715Z,38.05
2022-08-19T14:30:46.092Z,37.61
2022-08-19T14:35:48.406Z,37.15
2022-08-19T14:40:52.757Z,36.82
2022-08-19T14:45:57.839Z,36.56
2022-08-19T14:51:00.187Z,36.50
2022-08-19T14:56:02.773Z,36.74
2022-08-19T15:01:05.585Z,37.43
2022-08-19T15:06:09.121Z,38.22
2022-08-19T15:11:17.354Z,39.26
2022-08-19T15:16:19.979Z,40.34
2022-08-19T15:21:27.303Z,41.10
2022-08-19T15:26:33.075Z,41.75
2022-08-19T15:31:38.805Z,42.17
2022-08-19T15:36:41.293Z,42.59
2022-08-19T15:41:45.268Z,42.66
2022-08-19T15:46:48.852Z,41.78
2022-08-19T15:51:53.942Z,40.68
2022-08-19T15:56:59.387Z,40.49
2022-08-19T16:02:04.710Z,41.04
2022-08-19T16:07:12.805Z,41.50
2022-08-19T16:12:16.618Z,41.70
2022-08-19T16:17:18.954Z,41.83
2022-08-19T16:22:22.168Z,41.46
2022-08-19T16:27:24.784Z,40.30
2022-08-19T16:32:27.184Z,38.68
2022-08-19T16:37:29.740Z,37.47
2022-08-19T16:42:34.216Z,36.48
2022-08-19T16:47:36.617Z,35.73
2022-08-19T16:52:38.972Z,35.12
2022-08-19T16:57:41.313Z,34.56
2022-08-19T17:02:44.026Z,33.95
2022-08-19T17:07:46.427Z,33.43
2022-08-19T17:12:48.923Z,32.96
2022-08-19T17:17:52.687Z,32.47
2022-08-19T17:22:56.595Z,32.03
2022-08-19T17:28:05.704Z,31.58
2022-08-19T17:33:08.116Z,31.19
2022-08-19T17:38:14.218Z,30.81
2022-08-19T17:43:17.217Z,30.47
2022-08-19T17:48:39.245Z,30.11
2022-08-19T17:53:41.609Z,29.76
2022-08-19T17:58:46.001Z,29.50
2022-08-19T18:03:57.000Z,29.23
2022-08-19T18:08:59.579Z,29.00
2022-08-19T18:14:02.208Z,28.80
2022-08-19T18:19:04.794Z,28.59
2022-08-19T18:24:07.200Z,28.42
2022-08-19T18:29:09.605Z,28.26
2022-08-19T18:34:11.932Z,28.10
2022-08-19T18:39:17.353Z,27.96
2022-08-19T18:44:23.628Z,27.82
2022-08-19T18:49:31.984Z,27.69
2022-08-19T18:54:35.540Z,27.58
2022-08-19T18:59:38.591Z,27.51
2022-08-19T19:04:41.411Z,27.44
2022-08-19T19:09:45.047Z,27.37
2022-08-19T19:14:49.501Z,27.29
2022-08-19T19:19:52.448Z,27.19
2022-08-19T19:24:55.361Z,27.12
2022-08-19T19:29:57.769Z,27.05
2022-08-19T19:35:00.116Z,26.98
2022-08-19T19:40:02.602Z,26.94
2022-08-19T19:45:05.224Z,26.88
2022-08-19T19:50:16.056Z,26.83
2022-08-19T19:55:19.197Z,26.80
2022-08-19T20:00:21.990Z,26.79
2022-08-19T20:05:24.730Z,26.79
2022-08-19T20:10:27.991Z,26.79
2022-08-19T20:15:31.962Z,26.80
2022-08-19T20:20:34.824Z,26.79
2022-08-19T20:25:37.888Z,26.83
2022-08-19T20:30:46.498Z,26.84
2022-08-19T20:35:50.365Z,26.84
2022-08-19T20:40:52.903Z,26.83
2022-08-19T20:45:55.859Z,26.82
2022-08-19T20:50:58.443Z,26.78
2022-08-19T20:56:00.761Z,26.75
2022-08-19T21:01:04.046Z,26.72
2022-08-19T21:06:06.971Z,26.70
2022-08-19T21:11:10.385Z,26.67
2022-08-19T21:16:12.774Z,26.66
2022-08-19T21:21:15.753Z,26.65
2022-08-19T21:26:18.187Z,26.64
2022-08-19T21:31:20.997Z,26.65
2022-08-19T21:36:23.326Z,26.66
2022-08-19T21:41:25.783Z,26.65
2022-08-19T21:46:38.573Z,26.65
2022-08-19T21:51:41.286Z,26.64
2022-08-19T21:56:43.579Z,26.61
2022-08-19T22:01:49.666Z,26.60
2022-08-19T22:06:56.365Z,26.57
2022-08-19T22:11:58.776Z,26.56
2022-08-19T22:17:01.126Z,26.56
2022-08-19T22:22:03.665Z,26.55
2022-08-19T22:27:06.695Z,26.53
2022-08-19T22:32:26.999Z,26.53
2022-08-19T22:37:31.627Z,26.49
2022-08-19T22:42:33.938Z,26.45
2022-08-19T22:47:39.384Z,26.40
2022-08-19T22:52:52.035Z,26.35
2022-08-19T22:57:55.521Z,26.30
2022-08-19T23:02:58.357Z,26.25
2022-08-19T23:08:00.710Z,26.19
2022-08-19T23:13:03.146Z,26.09
2022-08-19T23:18:05.518Z,25.81
2022-08-19T23:23:09.455Z,25.43
2022-08-19T23:28:15.072Z,25.14
2022-08-19T23:33:24.100Z,24.90
2022-08-19T23:38:28.003Z,24.74
2022-08-19T23:43:30.893Z,24.62
2022-08-19T23:48:34.910Z,24.49
2022-08-19T23:53:40.677Z,24.29
2022-08-19T23:58:43.029Z,24.12
